Time;durP1;ratioP1;P1;durP2;ratioP2;P2;SDS_P1;SDS_P2;PMS_P1;PMS_P2;Temp;Humidity;BMP_temperature;BMP_pressure;BME280_temperature;BME280_humidity;BME280_pressure;Samples;Min_cycle;Max_cycle;Signal;HPM_P1;HPM_P2
2022/08/22 00:01:56;;;;;;;5.28;3.80;;;15.10;99.90;;;;;;5099848;28;20028;-47
2022/08/22 00:04:43;;;;;;;6.93;3.75;;;15.00;99.90;;;;;;5095662;28;20064;-46
2022/08/22 00:07:19;;;;;;;5.30;3.90;;;15.00;99.90;;;;;;5091768;28;20063;-47
2022/08/22 00:10:01;;;;;;;4.57;3.58;;;15.00;99.90;;;;;;5091804;28;20051;-47
2022/08/22 00:12:31;;;;;;;8.07;3.92;;;15.00;99.90;;;;;;5096501;28;20729;-46
2022/08/22 00:15:01;;;;;;;6.63;4.25;;;15.00;99.90;;;;;;5104441;28;20046;-46
2022/08/22 00:17:33;;;;;;;5.05;3.92;;;15.00;99.90;;;;;;5112955;28;20043;-46
2022/08/22 00:20:06;;;;;;;4.28;3.50;;;15.00;99.90;;;;;;5113211;28;20104;-46
2022/08/22 00:22:43;;;;;;;5.32;3.70;;;15.00;99.90;;;;;;5094233;28;20044;-46
2022/08/22 00:25:28;;;;;;;6.10;3.97;;;15.00;99.90;;;;;;5096918;28;20076;-47
2022/08/22 00:28:23;;;;;;;7.35;3.90;;;15.00;99.90;;;;;;5084803;28;20047;-46
2022/08/22 00:31:17;;;;;;;6.78;4.00;;;15.00;99.90;;;;;;5095103;28;20036;-45
2022/08/22 00:33:51;;;;;;;5.97;3.63;;;15.00;99.90;;;;;;5105842;28;20047;-46
2022/08/22 00:36:29;;;;;;;6.15;4.18;;;14.90;99.90;;;;;;5112175;28;20039;-48
2022/08/22 00:39:11;;;;;;;6.22;4.07;;;14.90;99.90;;;;;;5105582;28;20048;-47
2022/08/22 00:41:59;;;;;;;7.65;3.78;;;14.90;99.90;;;;;;5091608;28;20054;-48
2022/08/22 00:45:08;;;;;;;5.35;3.95;;;14.90;99.90;;;;;;5091556;28;20052;-47
2022/08/22 00:47:37;;;;;;;5.07;3.92;;;14.90;99.90;;;;;;5092224;28;20059;-45
2022/08/22 00:50:26;;;;;;;7.03;3.83;;;14.90;99.90;;;;;;5091269;28;20052;-46
2022/08/22 00:53:09;;;;;;;;;;;14.80;99.90;;;;;;5096052;28;20431;-46
2022/08/22 00:56:20;;;;;;;7.93;4.10;;;14.80;99.90;;;;;;5091797;28;19920;-46
2022/08/22 00:59:08;;;;;;;5.63;4.10;;;14.80;99.90;;;;;;5049051;28;20113;-46
2022/08/22 01:02:00;;;;;;;8.95;4.07;;;14.80;99.90;;;;;;5097341;28;20058;-47
2022/08/22 01:04:33;;;;;;;;;;;14.80;99.90;;;;;;5090383;28;20048;-46
2022/08/22 01:07:10;;;;;;;8.32;4.47;;;14.70;99.90;;;;;;5091338;28;19981;-46
2022/08/22 01:09:58;;;;;;;7.07;3.95;;;14.60;99.90;;;;;;5091357;28;20040;-46
2022/08/22 01:12:28;;;;;;;7.00;4.38;;;14.60;99.90;;;;;;5091514;28;20043;-46
2022/08/22 01:15:06;;;;;;;6.03;4.28;;;14.50;99.90;;;;;;5089759;28;20073;-46
2022/08/22 01:17:54;;;;;;;6.82;3.85;;;14.50;99.90;;;;;;5091814;28;20051;-47
2022/08/22 01:20:27;;;;;;;6.03;4.15;;;14.50;99.90;;;;;;5090346;28;20044;-47
2022/08/22 01:23:02;;;;;;;8.38;4.55;;;14.50;99.90;;;;;;5091728;28;20036;-46
2022/08/22 01:25:48;;;;;;;6.20;4.00;;;14.50;99.90;;;;;;5091341;28;20072;-47
2022/08/22 01:28:31;;;;;;;8.10;4.38;;;14.50;99.90;;;;;;5091539;28;20044;-46
2022/08/22 01:31:30;;;;;;;9.35;4.03;;;14.20;99.90;;;;;;5099684;28;20050;-46
2022/08/22 01:34:18;;;;;;;11.48;5.13;;;14.10;99.90;;;;;;5073021;28;20056;-45
2022/08/22 01:37:20;;;;;;;5.97;3.97;;;14.10;99.90;;;;;;5093373;28;21955;-46
2022/08/22 01:40:11;;;;;;;5.90;4.18;;;14.10;99.90;;;;;;5097258;28;20063;-46
2022/08/22 01:43:00;;;;;;;8.63;4.75;;;14.00;99.90;;;;;;5090501;28;20118;-46
2022/08/22 01:46:02;;;;;;;7.10;4.45;;;14.00;99.90;;;;;;5094207;28;20376;-46
2022/08/22 01:48:44;;;;;;;7.28;4.90;;;14.10;99.90;;;;;;5011237;28;20042;-46
2022/08/22 01:51:41;;;;;;;8.18;4.38;;;14.20;99.90;;;;;;5082531;28;20052;-46
2022/08/22 01:54:19;;;;;;;7.15;4.90;;;14.30;99.90;;;;;;5090233;28;20039;-46
2022/08/22 01:56:47;;;;;;;9.93;4.78;;;14.30;99.90;;;;;;5090857;28;20043;-46
2022/08/22 01:59:25;;;;;;;6.07;4.03;;;14.30;99.90;;;;;;5107383;28;20050;-46
2022/08/22 02:02:36;;;;;;;6.80;4.47;;;14.30;99.90;;;;;;5091033;28;20074;-46
2022/08/22 02:05:11;;;;;;;6.90;4.80;;;14.30;99.90;;;;;;5096468;28;20048;-46
2022/08/22 02:07:44;;;;;;;7.65;4.97;;;14.30;99.90;;;;;;5104042;28;20499;-46
2022/08/22 02:10:18;;;;;;;5.38;4.03;;;14.40;99.90;;;;;;5100522;28;20062;-46
2022/08/22 02:13:07;;;;;;;9.38;4.63;;;14.30;99.90;;;;;;5090975;28;20373;-46
2022/08/22 02:15:40;;;;;;;8.15;4.75;;;14.30;99.90;;;;;;5102413;28;20043;-46
2022/08/22 02:18:31;;;;;;;7.30;4.70;;;14.20;99.90;;;;;;5110706;28;20058;-47
2022/08/22 02:21:14;;;;;;;7.05;4.82;;;14.10;99.90;;;;;;5110443;28;20044;-47
2022/08/22 02:23:54;;;;;;;7.60;5.20;;;14.00;99.90;;;;;;5103862;28;20565;-46
2022/08/22 02:26:38;;;;;;;6.40;4.50;;;14.00;99.90;;;;;;5102230;28;20119;-46
2022/08/22 02:29:08;;;;;;;7.65;5.15;;;13.90;99.90;;;;;;5100030;28;20545;-46
2022/08/22 02:31:55;;;;;;;8.25;5.97;;;13.90;99.90;;;;;;5094721;28;20047;-47
2022/08/22 02:34:35;;;;;;;10.15;5.57;;;13.70;99.90;;;;;;5093824;28;20052;-46
2022/08/22 02:37:13;;;;;;;9.82;5.60;;;13.70;99.90;;;;;;5096380;28;20040;-46
2022/08/22 02:39:54;;;;;;;8.18;4.93;;;13.70;99.90;;;;;;5103280;28;20561;-46
2022/08/22 02:42:36;;;;;;;7.15;4.82;;;13.70;99.90;;;;;;5094986;28;20048;-46
2022/08/22 02:45:14;;;;;;;7.32;4.75;;;13.60;99.90;;;;;;5099830;28;20065;-46
2022/08/22 02:48:10;;;;;;;8.68;5.05;;;13.60;99.90;;;;;;5101524;28;20044;-46
2022/08/22 02:55:14;;;;;;;5.80;4.45;;;13.60;99.90;;;;;;5087711;28;20036;-47
2022/08/22 02:57:51;;;;;;;7.60;5.10;;;13.50;99.90;;;;;;5087652;28;20044;-47
2022/08/22 03:00:27;;;;;;;6.55;4.75;;;13.50;99.90;;;;;;5100634;28;20071;-48
2022/08/22 03:02:58;;;;;;;7.18;4.47;;;13.50;99.90;;;;;;5092211;28;20120;-47
2022/08/22 03:05:40;;;;;;;9.27;5.40;;;13.40;99.90;;;;;;5084598;28;20064;-48
2022/08/22 03:08:21;;;;;;;6.90;4.78;;;13.40;99.90;;;;;;5090352;28;20488;-47
2022/08/22 03:11:01;;;;;;;6.53;4.60;;;13.40;99.90;;;;;;5093864;28;20035;-47
2022/08/22 03:13:35;;;;;;;7.28;4.88;;;13.30;99.90;;;;;;5113635;28;20051;-49
2022/08/22 03:16:20;;;;;;;10.60;5.00;;;13.30;99.90;;;;;;5113942;28;20039;-47
2022/08/22 03:18:55;;;;;;;7.95;5.07;;;13.30;99.90;;;;;;5103866;28;20032;-47
2022/08/22 03:21:34;;;;;;;8.95;5.22;;;13.20;99.90;;;;;;5084343;28;20448;-47
2022/08/22 03:24:13;;;;;;;6.00;4.80;;;13.30;99.90;;;;;;5094789;28;20043;-47
2022/08/22 03:26:50;;;;;;;11.55;5.28;;;13.20;99.90;;;;;;5114411;28;20047;-47
2022/08/22 03:29:31;;;;;;;7.93;5.05;;;13.20;99.90;;;;;;5114053;28;20044;-47
2022/08/22 03:32:22;;;;;;;10.32;5.32;;;13.20;99.90;;;;;;5069388;28;20040;-47
2022/08/22 03:35:07;;;;;;;7.43;5.20;;;13.20;99.90;;;;;;5073400;28;20107;-47
2022/08/22 03:37:34;;;;;;;7.40;4.88;;;13.30;99.90;;;;;;5090593;28;20040;-48
2022/08/22 03:40:20;;;;;;;7.63;4.72;;;13.30;99.90;;;;;;5083655;28;20040;-47
2022/08/22 03:43:32;;;;;;;9.32;4.72;;;13.30;99.90;;;;;;5101698;28;20041;-47
2022/08/22 03:46:11;;;;;;;7.90;4.68;;;13.40;99.90;;;;;;5080838;28;20055;-48
2022/08/22 03:49:04;;;;;;;8.50;4.72;;;13.30;99.90;;;;;;5085074;28;20051;-48
2022/08/22 03:51:37;;;;;;;7.75;4.25;;;13.40;99.90;;;;;;5086154;28;20067;-47
2022/08/22 03:54:51;;;;;;;7.85;4.60;;;13.20;99.90;;;;;;5092241;28;20040;-47
2022/08/22 03:57:43;;;;;;;7.30;5.22;;;13.20;99.90;;;;;;5091679;28;20036;-47
2022/08/22 04:00:17;;;;;;;9.90;4.78;;;13.20;99.90;;;;;;5086786;28;20055;-47
2022/08/22 04:02:59;;;;;;;10.80;4.75;;;13.30;99.90;;;;;;5086571;28;20450;-47
2022/08/22 04:06:11;;;;;;;8.68;4.38;;;13.30;99.90;;;;;;5074374;28;20101;-48
2022/08/22 04:09:01;;;;;;;10.55;5.70;;;13.30;99.90;;;;;;5095088;28;20040;-47
2022/08/22 04:12:07;;;;;;;7.90;4.90;;;13.30;99.90;;;;;;5093942;28;20028;-47
2022/08/22 04:14:56;;;;;;;8.98;5.05;;;13.30;99.90;;;;;;5090062;28;20054;-50
2022/08/22 04:17:50;;;;;;;10.02;5.60;;;13.30;99.90;;;;;;5085900;28;20447;-47
2022/08/22 04:20:50;;;;;;;8.75;5.05;;;13.30;99.90;;;;;;5090640;28;20050;-47
2022/08/22 04:23:36;;;;;;;10.10;5.82;;;13.30;99.90;;;;;;5081788;28;20061;-47
2022/08/22 04:26:28;;;;;;;8.05;4.93;;;13.30;99.90;;;;;;5097425;28;20058;-46
2022/08/22 04:29:06;;;;;;;10.15;5.82;;;13.40;99.90;;;;;;5087900;28;20073;-47
2022/08/22 04:31:42;;;;;;;8.82;5.53;;;13.40;99.90;;;;;;5086460;28;20052;-47
2022/08/22 04:34:19;;;;;;;8.02;5.60;;;13.40;99.90;;;;;;5097665;28;20036;-47
2022/08/22 04:37:02;;;;;;;9.00;4.85;;;13.40;99.90;;;;;;5092458;28;20036;-47
2022/08/22 04:39:38;;;;;;;6.50;4.60;;;13.40;99.90;;;;;;5089881;28;20040;-47
2022/08/22 04:42:20;;;;;;;11.13;5.22;;;13.40;99.90;;;;;;5097132;28;20055;-48
2022/08/22 04:45:11;;;;;;;9.88;5.40;;;13.40;99.90;;;;;;5089342;28;20397;-47
2022/08/22 04:47:58;;;;;;;9.20;5.40;;;13.50;99.90;;;;;;5091887;28;20051;-48
2022/08/22 04:50:38;;;;;;;13.77;5.80;;;13.50;99.90;;;;;;5088982;28;20462;-47
2022/08/22 04:53:37;;;;;;;7.63;5.60;;;13.50;99.90;;;;;;5082734;28;20041;-49
2022/08/22 04:56:24;;;;;;;8.57;4.85;;;13.50;99.90;;;;;;5099016;28;20035;-49
2022/08/22 04:58:58;;;;;;;7.50;4.75;;;13.60;99.90;;;;;;5071464;28;20056;-47
2022/08/22 05:01:41;;;;;;;12.95;5.63;;;13.60;99.90;;;;;;5076741;28;20048;-47
2022/08/22 05:04:30;;;;;;;7.20;5.18;;;13.70;99.90;;;;;;5112052;28;20111;-47
2022/08/22 05:07:04;;;;;;;6.95;5.13;;;13.80;99.90;;;;;;5102018;28;20491;-47
2022/08/22 05:09:36;;;;;;;8.90;4.85;;;13.90;99.90;;;;;;5112023;28;20066;-48
2022/08/22 05:12:10;;;;;;;11.88;5.32;;;13.90;99.90;;;;;;5111456;28;20043;-47
2022/08/22 05:14:43;;;;;;;9.73;5.82;;;14.00;99.90;;;;;;5111918;28;20047;-48
2022/08/22 05:17:14;;;;;;;7.50;5.15;;;14.00;99.90;;;;;;5084013;28;20506;-47
2022/08/22 05:19:51;;;;;;;9.30;5.25;;;14.00;99.90;;;;;;5091855;28;20040;-48
2022/08/22 05:22:27;;;;;;;8.40;6.15;;;14.00;99.90;;;;;;5091238;28;20520;-47
2022/08/22 05:25:00;;;;;;;8.10;5.28;;;13.90;99.90;;;;;;5101414;28;20043;-47
2022/08/22 05:27:34;;;;;;;12.60;5.53;;;14.00;99.90;;;;;;5103594;28;20043;-47
2022/08/22 05:30:07;;;;;;;9.52;6.40;;;14.00;99.90;;;;;;5090800;28;20122;-48
2022/08/22 05:32:43;;;;;;;7.90;5.85;;;14.00;99.90;;;;;;5088675;28;20040;-47
2022/08/22 05:35:09;;;;;;;9.18;5.13;;;14.00;99.90;;;;;;5111459;28;20058;-48
2022/08/22 05:37:47;;;;;;;7.93;4.70;;;14.10;99.90;;;;;;5087614;28;20051;-47
2022/08/22 05:40:23;;;;;;;6.72;5.10;;;14.30;99.90;;;;;;5098147;28;20040;-47
2022/08/22 05:42:51;;;;;;;8.05;4.60;;;14.40;99.90;;;;;;5091711;28;20039;-48
2022/08/22 05:45:19;;;;;;;8.07;4.68;;;14.40;99.90;;;;;;5108751;28;20407;-47
2022/08/22 05:47:46;;;;;;;;;;;14.40;99.90;;;;;;5091549;28;20047;-47
2022/08/22 05:50:22;;;;;;;10.60;5.15;;;14.50;99.90;;;;;;5097389;28;19927;-47
2022/08/22 05:53:09;;;;;;;6.80;4.53;;;14.50;99.90;;;;;;5098826;28;20036;-47
2022/08/22 05:55:48;;;;;;;6.78;4.07;;;14.50;99.90;;;;;;5069620;28;20040;-47
2022/08/22 05:58:14;;;;;;;10.93;4.95;;;14.50;99.90;;;;;;5106943;28;20040;-46
2022/08/22 06:00:45;;;;;;;6.18;4.65;;;14.60;99.90;;;;;;5111930;28;20044;-45
2022/08/22 06:03:35;;;;;;;7.93;4.88;;;14.60;99.90;;;;;;5115320;28;20039;-48
2022/08/22 06:06:10;;;;;;;9.02;4.95;;;14.80;99.90;;;;;;5083617;28;20515;-45
2022/08/22 06:08:43;;;;;;;6.70;4.70;;;14.90;99.90;;;;;;5057332;28;20044;-45
2022/08/22 06:11:39;;;;;;;10.50;4.72;;;15.00;99.90;;;;;;5075227;28;20040;-45
2022/08/22 06:14:06;;;;;;;8.43;4.63;;;15.10;99.90;;;;;;5074637;28;20044;-45
2022/08/22 06:16:45;;;;;;;12.02;5.25;;;15.20;99.90;;;;;;5099163;28;20040;-45
2022/08/22 06:19:17;;;;;;;7.25;4.28;;;15.30;99.90;;;;;;5115143;28;20377;-45
2022/08/22 06:21:49;;;;;;;6.22;4.40;;;15.40;99.90;;;;;;5101730;28;20460;-45
2022/08/22 06:24:23;;;;;;;7.05;4.90;;;15.30;99.90;;;;;;5114955;28;20063;-46
2022/08/22 06:26:54;;;;;;;8.23;4.32;;;15.30;99.90;;;;;;5114599;28;20040;-45
2022/08/22 06:29:41;;;;;;;6.18;4.25;;;15.30;99.90;;;;;;5115238;28;20044;-46
2022/08/22 06:32:25;;;;;;;7.45;4.72;;;15.30;99.90;;;;;;5090321;28;20043;-45
2022/08/22 06:36:29;;;;;;;5.75;4.60;;;15.40;99.90;;;;;;5092080;28;20040;-45
2022/08/22 06:38:27;;;;;;;7.57;4.43;;;15.60;99.90;;;;;;5089221;28;20067;-45
2022/08/22 06:40:56;;;;;;;7.22;4.50;;;15.70;99.90;;;;;;5099696;28;20039;-47
2022/08/22 06:43:24;;;;;;;5.72;4.43;;;15.80;99.90;;;;;;5093316;28;20040;-45
2022/08/22 06:45:52;;;;;;;8.07;4.50;;;15.90;99.90;;;;;;5093853;28;20052;-45
2022/08/22 06:48:22;;;;;;;6.35;4.15;;;15.80;99.90;;;;;;5114883;28;20039;-45
2022/08/22 06:50:54;;;;;;;6.97;4.88;;;15.80;99.90;;;;;;5114699;28;20506;-46
2022/08/22 06:53:31;;;;;;;5.63;4.22;;;16.00;99.90;;;;;;5102854;28;20048;-47
2022/08/22 06:56:01;;;;;;;6.32;4.07;;;16.10;99.90;;;;;;5063748;28;20181;-47
2022/08/22 06:58:36;;;;;;;6.13;3.92;;;16.10;99.90;;;;;;5093910;28;20028;-47
2022/08/22 07:01:09;;;;;;;7.03;3.90;;;16.30;99.90;;;;;;5102499;28;20036;-47
2022/08/22 07:03:45;;;;;;;6.03;4.25;;;16.40;99.90;;;;;;5086192;28;20039;-47
2022/08/22 07:06:16;;;;;;;7.90;4.25;;;16.50;99.90;;;;;;5092950;28;20040;-47
2022/08/22 07:08:43;;;;;;;9.15;5.00;;;16.50;99.90;;;;;;5079051;28;20036;-47
2022/08/22 07:11:18;;;;;;;6.85;4.88;;;16.40;99.90;;;;;;5058043;28;20431;-49
2022/08/22 07:13:55;;;;;;;6.05;4.47;;;16.40;99.90;;;;;;5072597;28;20048;-45
2022/08/22 07:16:39;;;;;;;7.40;4.75;;;16.40;99.90;;;;;;5112018;28;20092;-45
2022/08/22 07:19:07;;;;;;;8.60;4.40;;;16.60;99.90;;;;;;5114244;28;20039;-45
2022/08/22 07:21:46;;;;;;;6.95;4.22;;;16.70;99.90;;;;;;5100621;28;20039;-45
2022/08/22 07:24:16;;;;;;;9.00;4.90;;;16.70;99.90;;;;;;5113602;28;20507;-46
2022/08/22 07:26:49;;;;;;;6.18;4.38;;;16.80;99.90;;;;;;5113282;28;20046;-46
2022/08/22 07:29:45;;;;;;;15.52;4.85;;;16.90;99.90;;;;;;5113930;28;20462;-46
2022/08/22 07:32:25;;;;;;;8.40;4.45;;;16.80;99.90;;;;;;5088470;28;20044;-47
2022/08/22 07:35:05;;;;;;;6.25;4.20;;;16.90;99.90;;;;;;5087984;28;20051;-45
2022/08/22 07:37:54;;;;;;;7.60;4.57;;;17.10;99.90;;;;;;5089786;28;20406;-47
2022/08/22 07:40:27;;;;;;;6.22;4.30;;;17.40;99.90;;;;;;5113812;28;20101;-47
2022/08/22 07:43:31;;;;;;;8.40;3.97;;;17.60;99.90;;;;;;5113526;28;20048;-45
2022/08/22 07:46:03;;;;;;;6.43;3.92;;;17.70;99.90;;;;;;5098033;28;20081;-45
2022/08/22 07:48:45;;;;;;;6.53;4.10;;;17.90;99.90;;;;;;5113913;28;20573;-47
2022/08/22 07:51:41;;;;;;;5.32;3.92;;;18.20;99.90;;;;;;5113541;28;20073;-48
2022/08/22 07:54:12;;;;;;;4.75;3.75;;;18.30;99.90;;;;;;5098541;28;20591;-47
2022/08/22 07:56:53;;;;;;;7.55;4.10;;;18.40;99.90;;;;;;5113668;28;20054;-47
2022/08/22 07:59:21;;;;;;;7.90;3.92;;;18.60;99.90;;;;;;5113220;28;20048;-47
2022/08/22 08:01:54;;;;;;;6.53;3.90;;;18.70;99.90;;;;;;5096469;28;20032;-47
2022/08/22 08:04:25;;;;;;;8.15;3.78;;;19.00;99.90;;;;;;5112582;28;20504;-47
2022/08/22 08:07:01;;;;;;;10.13;4.07;;;19.20;99.90;;;;;;5112654;28;20522;-48
2022/08/22 08:09:31;;;;;;;5.22;4.13;;;19.10;99.90;;;;;;5100625;28;20048;-47
2022/08/22 08:12:01;;;;;;;6.88;4.10;;;19.20;99.90;;;;;;5095217;28;20039;-47
2022/08/22 08:14:29;;;;;;;6.53;4.28;;;19.30;99.90;;;;;;5111833;28;20046;-47
2022/08/22 08:17:16;;;;;;;10.40;4.40;;;19.40;99.90;;;;;;5113405;28;20039;-47
2022/08/22 08:19:46;;;;;;;8.70;3.85;;;19.50;99.90;;;;;;5091549;28;20488;-47
2022/08/22 08:22:24;;;;;;;6.85;4.80;;;19.60;99.90;;;;;;5092362;28;20647;-49
2022/08/22 08:24:56;;;;;;;7.25;4.40;;;19.50;99.90;;;;;;5094992;28;20043;-51
2022/08/22 08:30:33;;;;;;;5.10;3.70;;;19.90;99.90;;;;;;5112154;28;20427;-48
2022/08/22 08:33:01;;;;;;;6.40;4.20;;;20.30;99.90;;;;;;5096020;28;20040;-47
2022/08/22 08:35:54;;;;;;;;;;;20.50;99.90;;;;;;5086587;28;20098;-45
2022/08/22 08:38:37;;;;;;;5.13;3.75;;;20.70;99.90;;;;;;5074511;28;19953;-45
2022/08/22 08:41:37;;;;;;;6.85;4.00;;;20.80;99.90;;;;;;5089452;28;20036;-45
2022/08/22 08:44:26;;;;;;;8.07;4.10;;;20.50;99.90;;;;;;5108545;28;20081;-47
2022/08/22 08:47:18;;;;;;;6.70;4.10;;;20.40;99.90;;;;;;5112536;28;20092;-45
2022/08/22 08:53:19;;;;;;;5.47;3.83;;;20.40;99.90;;;;;;5025315;28;20049;-45
2022/08/22 08:55:58;;;;;;;9.50;4.15;;;20.40;99.90;;;;;;5046699;28;20042;-46
2022/08/22 08:58:42;;;;;;;7.53;4.22;;;20.30;99.90;;;;;;5019946;28;20057;-47
2022/08/22 09:01:27;;;;;;;10.02;3.97;;;20.30;99.90;;;;;;5011745;28;20497;-46
2022/08/22 09:04:29;;;;;;;9.40;3.75;;;20.50;99.90;;;;;;5012140;28;20034;-47
2022/08/22 09:07:14;;;;;;;6.85;4.47;;;20.60;99.90;;;;;;5024755;28;20120;-45
2022/08/22 09:10:06;;;;;;;6.22;4.55;;;20.60;99.90;;;;;;5024804;28;20034;-45
2022/08/22 09:12:51;;;;;;;8.82;3.70;;;20.70;99.90;;;;;;5010594;28;20050;-47
2022/08/22 09:15:46;;;;;;;6.18;4.35;;;20.80;99.90;;;;;;5020499;28;20029;-45
2022/08/22 09:18:33;;;;;;;6.35;4.25;;;20.90;99.90;;;;;;5032006;28;20139;-46
2022/08/22 09:21:25;;;;;;;7.65;4.07;;;21.20;99.90;;;;;;5030436;28;20045;-46
2022/08/22 09:24:20;;;;;;;6.28;4.22;;;21.30;99.90;;;;;;5030056;28;20045;-46
2022/08/22 09:27:05;;;;;;;4.82;3.92;;;21.40;99.90;;;;;;5031585;28;20045;-46
2022/08/22 09:29:49;;;;;;;6.35;4.55;;;21.50;99.90;;;;;;5031261;28;20135;-48
2022/08/22 09:32:51;;;;;;;5.68;3.97;;;21.20;99.90;;;;;;5032736;28;20048;-46
2022/08/22 09:35:18;;;;;;;7.43;4.50;;;21.40;99.90;;;;;;5010621;28;20053;-46
2022/08/22 09:38:06;;;;;;;7.13;4.20;;;21.70;99.90;;;;;;5031132;28;20120;-45
2022/08/22 09:40:44;;;;;;;4.78;3.53;;;21.90;99.90;;;;;;5030258;28;20037;-46
2022/08/22 09:43:36;;;;;;;5.35;3.83;;;22.10;99.90;;;;;;5031460;28;20064;-46
2022/08/22 09:46:20;;;;;;;4.75;3.90;;;22.20;99.90;;;;;;5028479;28;20041;-46
2022/08/22 09:49:01;;;;;;;6.00;4.10;;;22.20;99.90;;;;;;5031209;28;20045;-48
2022/08/22 09:51:54;;;;;;;7.68;4.30;;;22.20;99.90;;;;;;5029197;28;20121;-46
2022/08/22 09:54:42;;;;;;;7.25;4.93;;;22.20;99.90;;;;;;5029345;28;20046;-46
2022/08/22 09:57:25;;;;;;;5.20;4.18;;;22.20;99.90;;;;;;5029942;28;20052;-48
2022/08/22 10:00:13;;;;;;;6.18;3.90;;;22.40;99.90;;;;;;5030725;28;20038;-46
2022/08/22 10:02:55;;;;;;;4.90;4.35;;;22.60;99.90;;;;;;5030046;28;20037;-47
2022/08/22 10:05:36;;;;;;;5.95;4.25;;;22.60;99.90;;;;;;5030378;28;20056;-46
2022/08/22 10:08:18;;;;;;;6.65;3.53;;;22.70;99.90;;;;;;5031581;28;20052;-45
2022/08/22 10:10:53;;;;;;;5.65;3.88;;;22.80;99.90;;;;;;5030204;28;20377;-46
2022/08/22 10:13:54;;;;;;;9.15;4.43;;;22.70;99.90;;;;;;5031268;28;20042;-46
2022/08/22 10:16:26;;;;;;;5.22;3.58;;;23.00;99.90;;;;;;5031241;28;20041;-46
2022/08/22 10:19:08;;;;;;;6.78;4.60;;;23.20;99.90;;;;;;5029773;28;20501;-47
2022/08/22 10:22:07;;;;;;;4.78;3.90;;;23.30;99.90;;;;;;5030751;28;20092;-46
2022/08/22 10:24:49;;;;;;;;;;;23.20;99.90;;;;;;5029633;28;20502;-45
2022/08/22 10:27:44;;;;;;;7.32;3.60;;;23.20;99.90;;;;;;5030442;28;20315;-46
2022/08/22 10:30:32;;;;;;;4.47;3.15;;;23.30;99.90;;;;;;5030784;28;20061;-47
2022/08/22 10:33:09;;;;;;;4.47;3.40;;;23.30;99.90;;;;;;5038041;28;20067;-46
2022/08/22 10:35:50;;;;;;;7.47;3.38;;;23.50;99.90;;;;;;5009491;28;20495;-46
2022/08/22 10:38:25;;;;;;;5.38;3.13;;;23.50;99.90;;;;;;5011229;28;20050;-45
2022/08/22 10:41:02;;;;;;;7.22;3.53;;;23.50;99.90;;;;;;5030344;28;20042;-46
2022/08/22 10:43:51;;;;;;;5.10;3.38;;;23.50;99.90;;;;;;5030064;28;20053;-46
2022/08/22 10:46:53;;;;;;;6.78;3.17;;;23.30;99.90;;;;;;5031228;28;20075;-46
2022/08/22 10:49:31;;;;;;;3.67;2.85;;;23.30;99.90;;;;;;5044695;28;20049;-46
2022/08/22 10:52:18;;;;;;;5.75;2.95;;;23.30;99.90;;;;;;5038438;28;20056;-46
2022/08/22 10:55:12;;;;;;;3.00;2.42;;;23.30;99.90;;;;;;5033776;28;20382;-46
2022/08/22 10:57:48;;;;;;;10.30;3.10;;;23.30;99.90;;;;;;5030619;28;20512;-46
2022/08/22 11:00:52;;;;;;;7.45;3.20;;;23.20;99.90;;;;;;5033770;28;20655;-45
2022/08/22 11:03:41;;;;;;;3.58;2.50;;;23.10;99.90;;;;;;5032183;28;20038;-46
2022/08/22 11:06:26;;;;;;;;;;;23.10;99.90;;;;;;5029232;28;20049;-46
2022/08/22 11:09:17;;;;;;;4.72;2.60;;;23.20;99.60;;;;;;5027464;28;19925;-45
2022/08/22 11:12:01;;;;;;;5.63;2.38;;;23.20;98.70;;;;;;5003257;28;20061;-48
2022/08/22 11:14:30;;;;;;;6.57;2.45;;;23.30;98.80;;;;;;5024879;28;20037;-46
2022/08/22 11:17:30;;;;;;;4.10;2.63;;;23.30;98.00;;;;;;5040642;28;20409;-46
2022/08/22 11:20:25;;;;;;;5.50;3.08;;;23.20;98.60;;;;;;5053014;28;20063;-46
2022/08/22 11:23:20;;;;;;;3.80;2.35;;;23.20;97.30;;;;;;5045492;28;20091;-46
2022/08/22 11:26:12;;;;;;;4.38;2.60;;;23.20;99.00;;;;;;5047570;28;20084;-45
2022/08/22 11:28:47;;;;;;;5.43;2.47;;;23.20;98.10;;;;;;5035036;28;20049;-46
2022/08/22 11:31:20;;;;;;;;;;;23.30;98.40;;;;;;5033727;28;20067;-45
2022/08/22 11:34:21;;;;;;;4.78;2.70;;;23.30;99.90;;;;;;5033144;28;20412;-46
2022/08/22 11:37:07;;;;;;;4.47;2.80;;;23.30;99.70;;;;;;5032334;28;20037;-47
2022/08/22 11:39:46;;;;;;;6.05;3.30;;;23.30;98.90;;;;;;5032698;28;20087;-46
2022/08/22 11:42:22;;;;;;;3.80;2.83;;;23.40;99.90;;;;;;5033639;28;20096;-48
2022/08/22 11:45:04;;;;;;;5.95;3.72;;;23.50;99.90;;;;;;5031711;28;20437;-46
2022/08/22 11:47:40;;;;;;;5.20;3.47;;;23.40;99.90;;;;;;5033144;28;20034;-46
2022/08/22 11:50:13;;;;;;;4.65;3.00;;;23.50;99.90;;;;;;5033283;28;20045;-46
2022/08/22 11:53:06;;;;;;;5.85;3.05;;;23.60;99.70;;;;;;5031077;28;20613;-46
2022/08/22 11:55:40;;;;;;;5.97;3.60;;;23.60;99.90;;;;;;5024990;28;20116;-46
2022/08/22 11:58:16;;;;;;;4.65;3.42;;;23.70;99.90;;;;;;5031222;28;20045;-46
2022/08/22 12:00:55;;;;;;;6.95;3.50;;;24.00;99.90;;;;;;5033052;28;20087;-46
2022/08/22 12:04:01;;;;;;;5.13;3.53;;;23.90;99.90;;;;;;5034878;28;20050;-46
2022/08/22 12:06:58;;;;;;;4.55;3.60;;;24.00;99.90;;;;;;5035650;28;20060;-45
2022/08/22 12:09:44;;;;;;;6.07;3.70;;;23.90;99.70;;;;;;5051099;28;20041;-46
2022/08/22 12:12:33;;;;;;;5.75;2.83;;;23.70;99.90;;;;;;5030275;28;20046;-46
2022/08/22 12:15:22;;;;;;;4.25;3.28;;;23.60;99.40;;;;;;5032178;28;20061;-46
2022/08/22 12:18:14;;;;;;;8.18;3.40;;;23.60;99.60;;;;;;5032321;28;20072;-46
2022/08/22 12:20:50;;;;;;;6.32;3.30;;;23.70;99.20;;;;;;5034934;28;20044;-46
2022/08/22 12:23:55;;;;;;;7.68;3.78;;;23.60;99.90;;;;;;5033087;28;20447;-46
2022/08/22 12:26:35;;;;;;;3.70;3.40;;;23.60;99.50;;;;;;5031413;28;20409;-45
2022/08/22 12:29:23;;;;;;;4.63;3.25;;;23.50;99.50;;;;;;5032693;28;20045;-46
2022/08/22 12:32:17;;;;;;;7.45;3.15;;;23.70;99.90;;;;;;5032236;28;20056;-47
2022/08/22 12:35:22;;;;;;;6.43;3.38;;;23.80;99.30;;;;;;5031376;28;20064;-47
2022/08/22 12:38:01;;;;;;;3.50;2.42;;;23.90;99.90;;;;;;5027786;28;20037;-46
2022/08/22 12:40:52;;;;;;;5.40;3.25;;;23.90;99.20;;;;;;5032009;28;20052;-46
2022/08/22 12:43:32;;;;;;;4.10;3.03;;;23.90;98.80;;;;;;5039966;28;20040;-48
2022/08/22 12:46:32;;;;;;;5.55;3.47;;;23.90;99.30;;;;;;5048950;28;20417;-46
2022/08/22 12:49:20;;;;;;;5.57;3.92;;;23.80;99.90;;;;;;5052278;28;20033;-46
2022/08/22 12:52:07;;;;;;;9.52;3.78;;;24.20;99.90;;;;;;5041103;28;20046;-46
2022/08/22 12:55:04;;;;;;;5.65;3.72;;;23.90;99.90;;;;;;5031746;28;20038;-45
2022/08/22 12:57:38;;;;;;;11.18;3.75;;;23.90;99.90;;;;;;5030627;28;20056;-46
2022/08/22 13:00:18;;;;;;;4.88;3.30;;;23.90;99.90;;;;;;5031892;28;20049;-46
2022/08/22 13:02:53;;;;;;;6.15;3.65;;;23.70;99.90;;;;;;5030050;28;20501;-47
2022/08/22 13:05:24;;;;;;;7.97;4.15;;;23.70;99.90;;;;;;5031282;28;20045;-46
2022/08/22 13:07:55;;;;;;;4.15;3.30;;;23.70;99.90;;;;;;5030839;28;20053;-46
2022/08/22 13:10:34;;;;;;;6.38;3.42;;;23.70;99.90;;;;;;5031658;28;20096;-46
2022/08/22 13:13:03;;;;;;;8.18;3.92;;;23.70;99.90;;;;;;5030012;28;20080;-46
2022/08/22 13:15:52;;;;;;;4.93;3.83;;;23.90;99.90;;;;;;5031275;28;20131;-46
2022/08/22 13:18:24;;;;;;;6.60;3.65;;;24.20;99.90;;;;;;5031627;28;20041;-46
2022/08/22 13:21:00;;;;;;;7.13;3.70;;;24.50;99.90;;;;;;5030062;28;20053;-46
2022/08/22 13:23:30;;;;;;;5.75;3.67;;;24.40;99.90;;;;;;5031114;28;20509;-46
2022/08/22 13:26:16;;;;;;;5.28;3.88;;;24.50;99.90;;;;;;5031677;28;20052;-46
2022/08/22 13:29:13;;;;;;;6.53;3.80;;;24.70;99.90;;;;;;5030895;28;20477;-47
2022/08/22 13:32:01;;;;;;;5.47;3.55;;;25.10;99.40;;;;;;5039557;28;20041;-46
2022/08/22 13:34:55;;;;;;;7.03;3.53;;;25.40;98.80;;;;;;5031279;28;20040;-46
2022/08/22 13:37:35;;;;;;;4.75;3.45;;;25.00;99.00;;;;;;5029204;28;20119;-46
2022/08/22 13:40:07;;;;;;;5.70;3.17;;;24.70;98.80;;;;;;5046407;28;20305;-46
2022/08/22 13:42:44;;;;;;;5.68;2.92;;;24.30;99.90;;;;;;5031037;28;20073;-46
2022/08/22 13:45:21;;;;;;;6.55;3.10;;;24.30;99.90;;;;;;5030777;28;20053;-46
2022/08/22 13:48:01;;;;;;;3.85;2.53;;;24.10;99.90;;;;;;5033587;28;20095;-48
2022/08/22 13:50:32;;;;;;;5.97;2.58;;;23.90;98.00;;;;;;5050858;28;20052;-46
2022/08/22 13:53:33;;;;;;;6.95;3.38;;;24.10;98.40;;;;;;5042414;28;20049;-46
2022/08/22 13:56:12;;;;;;;5.82;2.78;;;24.20;98.50;;;;;;5031216;28;20045;-45
2022/08/22 13:58:49;;;;;;;5.00;2.42;;;24.40;98.30;;;;;;5030327;28;20125;-46
2022/08/22 14:01:24;;;;;;;5.25;2.80;;;24.60;98.10;;;;;;5032442;28;20041;-46
2022/08/22 14:04:13;;;;;;;6.00;2.72;;;24.50;97.50;;;;;;5042530;28;20447;-46
2022/08/22 14:07:04;;;;;;;6.85;3.05;;;24.60;98.40;;;;;;5051189;28;20055;-45
2022/08/22 14:09:31;;;;;;;5.00;2.70;;;24.70;97.60;;;;;;5040318;28;20038;-49
2022/08/22 14:12:18;;;;;;;;;;;24.60;98.30;;;;;;5031458;28;20417;-46
2022/08/22 14:14:53;;;;;;;6.28;2.90;;;24.70;98.70;;;;;;5030209;28;19929;-46
2022/08/22 14:17:26;;;;;;;3.42;2.63;;;24.70;98.70;;;;;;5030363;28;20071;-46